Time;durP1;ratioP1;P1;durP2;ratioP2;P2;SDS_P1;SDS_P2;PMS_P1;PMS_P2;Temp;Humidity;BMP_temperature;BMP_pressure;BME280_temperature;BME280_humidity;BME280_pressure;Samples;Min_cycle;Max_cycle;Signal;HPM_P1;HPM_P2
2023/09/20 00:00:18;;;;;;;4.72;1.10;;;;;;;;;;2110188;28;20020;-68
2023/09/20 00:01:37;;;;;;;8.00;1.50;;;;;;;;;;2109702;28;20024;-68
2023/09/20 00:02:56;;;;;;;4.97;1.55;;;;;;;;;;2109851;28;20476;-67
2023/09/20 00:04:15;;;;;;;6.28;1.63;;;;;;;;;;2110464;28;20114;-67
2023/09/20 00:05:39;;;;;;;6.47;1.92;;;;;;;;;;2110082;28;20353;-67
2023/09/20 00:06:58;;;;;;;2.88;1.65;;;;;;;;;;2110211;28;20032;-69
2023/09/20 00:08:17;;;;;;;5.47;1.58;;;;;;;;;;2108471;28;20028;-67
2023/09/20 00:09:36;;;;;;;4.72;1.45;;;;;;;;;;2110699;28;20024;-65
2023/09/20 00:10:55;;;;;;;3.25;1.45;;;;;;;;;;2111029;28;20032;-68
2023/09/20 00:12:14;;;;;;;6.63;1.60;;;;;;;;;;2110177;28;20496;-68
2023/09/20 00:13:33;;;;;;;7.18;1.80;;;;;;;;;;2103287;28;20135;-67
2023/09/20 00:14:52;;;;;;;2.58;1.42;;;;;;;;;;2104427;28;20120;-67
2023/09/20 00:16:12;;;;;;;4.95;1.50;;;;;;;;;;2109374;28;20064;-66
2023/09/20 00:17:34;;;;;;;4.82;1.70;;;;;;;;;;2110571;28;20028;-67
2023/09/20 00:18:53;;;;;;;1.40;1.00;;;;;;;;;;2110427;28;20110;-67
2023/09/20 00:20:12;;;;;;;2.85;0.98;;;;;;;;;;2110680;28;20376;-67
2023/09/20 00:21:31;;;;;;;1.27;0.60;;;;;;;;;;2109123;28;20135;-66
2023/09/20 00:22:50;;;;;;;1.38;0.70;;;;;;;;;;2109949;28;20024;-67
2023/09/20 00:24:09;;;;;;;1.50;0.32;;;;;;;;;;2109967;28;20024;-67
2023/09/20 00:25:28;;;;;;;0.52;0.52;;;;;;;;;;2110558;28;20040;-67
2023/09/20 00:26:47;;;;;;;0.60;0.43;;;;;;;;;;2110113;28;20028;-67
2023/09/20 00:28:07;;;;;;;0.75;0.50;;;;;;;;;;2109328;28;20035;-65
2023/09/20 00:29:26;;;;;;;1.13;0.50;;;;;;;;;;2100221;28;20683;-67
2023/09/20 00:30:45;;;;;;;0.73;0.40;;;;;;;;;;2101108;28;20032;-67
2023/09/20 00:32:05;;;;;;;0.73;0.40;;;;;;;;;;2106785;28;20032;-67
2023/09/20 00:33:24;;;;;;;0.70;0.40;;;;;;;;;;2110736;28;20040;-68
2023/09/20 00:34:43;;;;;;;0.75;0.40;;;;;;;;;;2109339;28;20056;-67
2023/09/20 00:36:02;;;;;;;1.05;0.65;;;;;;;;;;2109647;28;20028;-69
2023/09/20 00:37:21;;;;;;;1.08;0.40;;;;;;;;;;2110652;28;20684;-65
2023/09/20 00:38:40;;;;;;;1.00;0.30;;;;;;;;;;2110570;28;20016;-67
2023/09/20 00:39:59;;;;;;;0.75;0.73;;;;;;;;;;2108376;28;20028;-64
2023/09/20 00:41:18;;;;;;;0.80;0.40;;;;;;;;;;2101223;28;20025;-67
2023/09/20 00:42:37;;;;;;;1.27;0.40;;;;;;;;;;2106441;28;20110;-67
2023/09/20 00:43:58;;;;;;;0.57;0.20;;;;;;;;;;2110059;28;20599;-67
2023/09/20 00:45:19;;;;;;;0.40;0.25;;;;;;;;;;2110259;28;20023;-67
2023/09/20 00:46:38;;;;;;;1.98;0.38;;;;;;;;;;2110665;28;20107;-68
2023/09/20 00:47:58;;;;;;;0.32;0.32;;;;;;;;;;2109342;28;20480;-67
2023/09/20 00:49:17;;;;;;;0.30;0.20;;;;;;;;;;2110750;27;20035;-69
2023/09/20 00:50:36;;;;;;;0.30;0.30;;;;;;;;;;2109629;28;20036;-67
2023/09/20 00:51:56;;;;;;;0.40;0.40;;;;;;;;;;2111034;28;20052;-67
2023/09/20 00:53:16;;;;;;;0.47;0.45;;;;;;;;;;2109526;28;20032;-67
2023/09/20 00:54:36;;;;;;;0.93;0.20;;;;;;;;;;2111250;28;20028;-67
2023/09/20 00:55:55;;;;;;;1.00;0.40;;;;;;;;;;2110937;28;20400;-68
2023/09/20 00:57:14;;;;;;;0.30;0.30;;;;;;;;;;2110709;28;20339;-66
2023/09/20 00:58:36;;;;;;;0.80;0.20;;;;;;;;;;2108473;28;20468;-69
2023/09/20 00:59:55;;;;;;;0.28;0.22;;;;;;;;;;2108315;28;20613;-64
2023/09/20 01:01:15;;;;;;;0.57;0.30;;;;;;;;;;2110214;28;20103;-67
2023/09/20 01:02:34;;;;;;;0.30;0.22;;;;;;;;;;2109979;28;20031;-67
2023/09/20 01:03:54;;;;;;;0.30;0.30;;;;;;;;;;2111164;28;20047;-67
2023/09/20 01:05:14;;;;;;;1.02;0.30;;;;;;;;;;2111448;28;20106;-69
2023/09/20 01:06:33;;;;;;;1.92;0.50;;;;;;;;;;2110149;28;20024;-67
2023/09/20 01:07:56;;;;;;;0.85;0.40;;;;;;;;;;2101341;28;20029;-67
2023/09/20 01:09:15;;;;;;;;;;;;;;;;;;2107678;28;20438;-67
2023/09/20 01:10:37;;;;;;;0.40;0.38;;;;;;;;;;2104655;28;19908;-69
2023/09/20 01:11:57;;;;;;;0.43;0.40;;;;;;;;;;2108217;28;20539;-66
2023/09/20 01:13:18;;;;;;;0.75;0.40;;;;;;;;;;2110362;28;20028;-67
2023/09/20 01:14:37;;;;;;;1.00;0.32;;;;;;;;;;2110628;28;20032;-67
2023/09/20 01:15:58;;;;;;;0.75;0.30;;;;;;;;;;2109881;28;20019;-65
2023/09/20 01:17:17;;;;;;;0.82;0.35;;;;;;;;;;2110179;28;20020;-66
2023/09/20 01:18:36;;;;;;;0.50;0.40;;;;;;;;;;2109703;27;20020;-67
2023/09/20 01:19:55;;;;;;;0.50;0.35;;;;;;;;;;2109555;28;20023;-66
2023/09/20 01:21:14;;;;;;;0.95;0.30;;;;;;;;;;2111327;27;20032;-66
2023/09/20 01:22:33;;;;;;;1.65;0.50;;;;;;;;;;2108240;28;20024;-67
2023/09/20 01:23:53;;;;;;;0.60;0.30;;;;;;;;;;2109833;28;20114;-67
2023/09/20 01:25:16;;;;;;;0.28;0.28;;;;;;;;;;2109890;28;20024;-67
2023/09/20 01:26:35;;;;;;;0.35;0.35;;;;;;;;;;2110696;27;20020;-68
2023/09/20 01:27:56;;;;;;;0.30;0.30;;;;;;;;;;2109162;27;20028;-67
2023/09/20 01:29:15;;;;;;;1.02;0.47;;;;;;;;;;2110554;28;20032;-63
2023/09/20 01:30:35;;;;;;;0.45;0.30;;;;;;;;;;2110166;28;20484;-67
2023/09/20 01:31:59;;;;;;;0.30;0.30;;;;;;;;;;2110348;27;20095;-65
2023/09/20 01:33:18;;;;;;;0.38;0.38;;;;;;;;;;2109979;28;20087;-65
2023/09/20 01:34:37;;;;;;;0.60;0.60;;;;;;;;;;2109822;27;20035;-67
2023/09/20 01:35:58;;;;;;;0.30;0.30;;;;;;;;;;2109503;28;20020;-67
2023/09/20 01:37:18;;;;;;;0.52;0.38;;;;;;;;;;2109541;28;20028;-67
2023/09/20 01:38:39;;;;;;;0.30;0.30;;;;;;;;;;2110865;27;20031;-66
2023/09/20 01:39:58;;;;;;;1.08;0.30;;;;;;;;;;2109817;28;20028;-64
2023/09/20 01:41:19;;;;;;;1.17;0.30;;;;;;;;;;2109435;28;20066;-66
2023/09/20 01:42:38;;;;;;;0.43;0.40;;;;;;;;;;2108156;28;20023;-66
2023/09/20 01:43:57;;;;;;;0.40;0.20;;;;;;;;;;2110932;27;20019;-66
2023/09/20 01:45:20;;;;;;;0.30;0.30;;;;;;;;;;2108523;28;20031;-66
2023/09/20 01:46:41;;;;;;;0.20;0.20;;;;;;;;;;2109813;28;20024;-67
2023/09/20 01:48:08;;;;;;;0.40;0.30;;;;;;;;;;2109203;28;20047;-65
2023/09/20 01:49:28;;;;;;;1.10;0.30;;;;;;;;;;2109277;28;20400;-66
2023/09/20 01:50:49;;;;;;;0.30;0.30;;;;;;;;;;2108649;28;20024;-65
2023/09/20 01:52:08;;;;;;;0.57;0.30;;;;;;;;;;2106040;28;20413;-66
2023/09/20 01:53:28;;;;;;;0.30;0.30;;;;;;;;;;2111040;28;20099;-66
2023/09/20 01:54:47;;;;;;;0.52;0.20;;;;;;;;;;2109884;28;20043;-66
2023/09/20 01:56:06;;;;;;;1.08;0.30;;;;;;;;;;2109065;28;20028;-67
2023/09/20 01:57:24;;;;;;;1.20;0.30;;;;;;;;;;2111033;28;20103;-66
2023/09/20 01:58:44;;;;;;;0.10;0.10;;;;;;;;;;2099965;28;20024;-66
2023/09/20 02:00:09;;;;;;;0.52;0.20;;;;;;;;;;2104614;28;20023;-66
2023/09/20 02:01:29;;;;;;;1.95;0.30;;;;;;;;;;2110290;28;20585;-66
2023/09/20 02:02:55;;;;;;;0.43;0.32;;;;;;;;;;2109460;28;20036;-67
2023/09/20 02:04:20;;;;;;;0.52;0.20;;;;;;;;;;2109576;28;20036;-63
2023/09/20 02:05:40;;;;;;;0.63;0.20;;;;;;;;;;2108748;28;20028;-66
2023/09/20 02:06:59;;;;;;;0.13;0.10;;;;;;;;;;2108014;28;20051;-70
2023/09/20 02:08:18;;;;;;;0.85;0.20;;;;;;;;;;2108467;28;20024;-66
2023/09/20 02:09:37;;;;;;;0.43;0.28;;;;;;;;;;2100271;28;20020;-67
2023/09/20 02:10:56;;;;;;;0.47;0.20;;;;;;;;;;2106858;28;20488;-66
2023/09/20 02:12:15;;;;;;;0.50;0.30;;;;;;;;;;2110087;28;20032;-66
2023/09/20 02:13:34;;;;;;;0.10;0.10;;;;;;;;;;2111958;28;20035;-66
2023/09/20 02:14:53;;;;;;;0.20;0.10;;;;;;;;;;2111315;28;20032;-67
2023/09/20 02:16:12;;;;;;;0.10;0.10;;;;;;;;;;2111641;27;20024;-68
2023/09/20 02:17:31;;;;;;;0.32;0.20;;;;;;;;;;2111569;28;20059;-67
2023/09/20 02:18:51;;;;;;;0.40;0.10;;;;;;;;;;2110951;28;20025;-68
2023/09/20 02:20:11;;;;;;;0.60;0.20;;;;;;;;;;2109968;27;20028;-67
2023/09/20 02:21:31;;;;;;;0.30;0.20;;;;;;;;;;2109082;28;20028;-67
2023/09/20 02:22:53;;;;;;;0.40;0.20;;;;;;;;;;2101487;28;20032;-66
2023/09/20 02:24:14;;;;;;;0.10;0.10;;;;;;;;;;2108109;28;20031;-67
2023/09/20 02:25:33;;;;;;;0.10;0.10;;;;;;;;;;2111584;28;20043;-64
2023/09/20 02:26:52;;;;;;;0.17;0.17;;;;;;;;;;2109595;27;20036;-67
2023/09/20 02:28:11;;;;;;;0.22;0.22;;;;;;;;;;2111628;27;20035;-68
2023/09/20 02:29:31;;;;;;;0.65;0.10;;;;;;;;;;2111548;28;20024;-67
2023/09/20 02:30:50;;;;;;;0.65;0.30;;;;;;;;;;2110149;28;20484;-67
2023/09/20 02:32:11;;;;;;;0.13;0.13;;;;;;;;;;2110606;27;20392;-68
2023/09/20 02:33:30;;;;;;;0.20;0.10;;;;;;;;;;2112756;27;20107;-68
2023/09/20 02:34:51;;;;;;;1.75;0.10;;;;;;;;;;2111825;27;20498;-68
2023/09/20 02:36:11;;;;;;;0.30;0.10;;;;;;;;;;2110529;28;20602;-66
2023/09/20 02:37:30;;;;;;;0.47;0.10;;;;;;;;;;2111439;28;20019;-67
2023/09/20 02:38:49;;;;;;;0.20;0.10;;;;;;;;;;2105185;28;20024;-68
2023/09/20 02:40:11;;;;;;;0.20;0.10;;;;;;;;;;2109432;27;20020;-66
2023/09/20 02:41:31;;;;;;;0.25;0.10;;;;;;;;;;2108106;27;20020;-66
2023/09/20 02:42:54;;;;;;;0.10;0.10;;;;;;;;;;2110113;28;20032;-66
2023/09/20 02:44:13;;;;;;;0.40;0.10;;;;;;;;;;2109299;28;20567;-67
2023/09/20 02:45:39;;;;;;;0.20;0.20;;;;;;;;;;2110250;27;20031;-66
2023/09/20 02:46:59;;;;;;;0.10;0.10;;;;;;;;;;2110172;28;20040;-64
2023/09/20 02:48:18;;;;;;;0.13;0.10;;;;;;;;;;2110919;27;20032;-69
2023/09/20 02:49:39;;;;;;;0.10;0.00;;;;;;;;;;2110038;27;20028;-71
2023/09/20 02:50:59;;;;;;;0.10;0.10;;;;;;;;;;2109554;28;20146;-68
2023/09/20 02:52:19;;;;;;;0.50;0.20;;;;;;;;;;2110954;27;20488;-68
2023/09/20 02:53:38;;;;;;;0.10;0.10;;;;;;;;;;2111167;28;20380;-69
2023/09/20 02:55:00;;;;;;;0.17;0.15;;;;;;;;;;2107062;27;20048;-65
2023/09/20 02:56:19;;;;;;;0.60;0.10;;;;;;;;;;2109164;27;20027;-66
2023/09/20 02:57:39;;;;;;;0.05;0.00;;;;;;;;;;2110597;28;20426;-67
2023/09/20 02:58:58;;;;;;;0.20;0.10;;;;;;;;;;2110592;27;20043;-67
2023/09/20 03:00:21;;;;;;;0.93;0.20;;;;;;;;;;2110049;28;20484;-67
2023/09/20 03:01:40;;;;;;;0.20;0.20;;;;;;;;;;2104428;28;20024;-67
2023/09/20 03:03:01;;;;;;;0.10;0.10;;;;;;;;;;2107385;28;20411;-64
2023/09/20 03:04:19;;;;;;;0.10;0.03;;;;;;;;;;2112430;27;20043;-68
2023/09/20 03:05:38;;;;;;;0.00;0.00;;;;;;;;;;2111640;27;20027;-67
2023/09/20 03:06:57;;;;;;;0.28;0.10;;;;;;;;;;2112581;27;20134;-68
2023/09/20 03:08:17;;;;;;;0.28;0.28;;;;;;;;;;2111280;27;20020;-67
2023/09/20 03:09:37;;;;;;;0.20;0.03;;;;;;;;;;2111228;28;20024;-66
2023/09/20 03:10:56;;;;;;;0.38;0.10;;;;;;;;;;2109510;28;20035;-66
2023/09/20 03:12:16;;;;;;;1.55;0.10;;;;;;;;;;2110961;28;20032;-66
2023/09/20 03:13:36;;;;;;;0.30;0.10;;;;;;;;;;2108863;28;20151;-67
2023/09/20 03:14:55;;;;;;;0.65;0.08;;;;;;;;;;2110906;28;20028;-64
2023/09/20 03:16:18;;;;;;;0.05;0.03;;;;;;;;;;2110617;27;20020;-65
2023/09/20 03:17:42;;;;;;;0.00;0.00;;;;;;;;;;2112432;27;20020;-68
2023/09/20 03:19:01;;;;;;;0.35;0.13;;;;;;;;;;2111947;28;20019;-67
2023/09/20 03:20:23;;;;;;;0.22;0.10;;;;;;;;;;2111097;27;20023;-67
2023/09/20 03:21:43;;;;;;;0.00;0.00;;;;;;;;;;2110791;28;20035;-66
2023/09/20 03:23:03;;;;;;;0.17;0.10;;;;;;;;;;2110283;28;20493;-64
2023/09/20 03:24:22;;;;;;;0.32;0.10;;;;;;;;;;2111323;28;20098;-64
2023/09/20 03:25:41;;;;;;;0.00;0.00;;;;;;;;;;2110259;27;20035;-67
2023/09/20 03:27:01;;;;;;;0.10;0.10;;;;;;;;;;2111104;27;20032;-68
2023/09/20 03:28:22;;;;;;;0.00;0.00;;;;;;;;;;2109280;27;20031;-66
2023/09/20 03:29:42;;;;;;;1.10;0.10;;;;;;;;;;2110479;27;20059;-67
2023/09/20 03:31:10;;;;;;;0.45;0.20;;;;;;;;;;2110835;28;20043;-67
2023/09/20 03:32:28;;;;;;;0.20;0.10;;;;;;;;;;2111236;27;20041;-67
2023/09/20 03:33:47;;;;;;;0.00;0.00;;;;;;;;;;2111314;28;20036;-67
2023/09/20 03:35:07;;;;;;;0.05;0.05;;;;;;;;;;2110644;28;20106;-65
2023/09/20 03:36:26;;;;;;;0.00;0.00;;;;;;;;;;2101010;28;20473;-67
2023/09/20 03:37:46;;;;;;;0.13;0.10;;;;;;;;;;2098353;28;20072;-66
2023/09/20 03:39:11;;;;;;;0.08;0.08;;;;;;;;;;2097987;28;20028;-69
2023/09/20 03:40:30;;;;;;;0.20;0.10;;;;;;;;;;2100138;28;20064;-66
2023/09/20 03:41:51;;;;;;;0.25;0.03;;;;;;;;;;2106917;28;20032;-67
2023/09/20 03:43:10;;;;;;;0.10;0.00;;;;;;;;;;2110258;27;20028;-67
2023/09/20 03:44:28;;;;;;;0.08;0.00;;;;;;;;;;2111521;27;20031;-67
2023/09/20 03:45:50;;;;;;;0.60;0.10;;;;;;;;;;2100233;28;20032;-66
2023/09/20 03:47:10;;;;;;;0.30;0.10;;;;;;;;;;2108181;28;20028;-66
2023/09/20 03:48:29;;;;;;;0.10;0.10;;;;;;;;;;2110493;28;20066;-66
2023/09/20 03:49:52;;;;;;;0.00;0.00;;;;;;;;;;2110375;28;20028;-67
2023/09/20 03:51:15;;;;;;;0.10;0.10;;;;;;;;;;2109786;27;20035;-66
2023/09/20 03:52:36;;;;;;;0.65;0.35;;;;;;;;;;2109886;28;20031;-67
2023/09/20 03:53:55;;;;;;;0.20;0.10;;;;;;;;;;2111904;28;20036;-67
2023/09/20 03:55:14;;;;;;;0.10;0.10;;;;;;;;;;2110641;28;20020;-66
2023/09/20 03:56:35;;;;;;;0.10;0.10;;;;;;;;;;2110533;28;20095;-67
2023/09/20 03:57:53;;;;;;;0.03;0.03;;;;;;;;;;2109906;28;20500;-67
2023/09/20 03:59:13;;;;;;;0.15;0.03;;;;;;;;;;2111414;28;20066;-66
2023/09/20 04:00:34;;;;;;;0.10;0.00;;;;;;;;;;2102486;28;20484;-67
2023/09/20 04:01:53;;;;;;;1.05;0.28;;;;;;;;;;2105878;28;20032;-66
2023/09/20 04:03:13;;;;;;;0.00;0.00;;;;;;;;;;2110696;28;20059;-66
2023/09/20 04:04:34;;;;;;;0.10;0.10;;;;;;;;;;2111780;28;20031;-67
2023/09/20 04:05:56;;;;;;;0.60;0.10;;;;;;;;;;2100024;28;20040;-65
2023/09/20 04:07:15;;;;;;;0.10;0.10;;;;;;;;;;2108484;28;20438;-66
2023/09/20 04:08:34;;;;;;;0.55;0.17;;;;;;;;;;2110764;27;20024;-67
2023/09/20 04:09:53;;;;;;;0.10;0.10;;;;;;;;;;2110626;28;20087;-67
2023/09/20 04:11:12;;;;;;;0.22;0.10;;;;;;;;;;2109582;28;20032;-67
2023/09/20 04:12:31;;;;;;;0.75;0.20;;;;;;;;;;2111799;27;20032;-67
2023/09/20 04:13:50;;;;;;;0.22;0.10;;;;;;;;;;2111197;28;20177;-69
2023/09/20 04:15:09;;;;;;;0.10;0.10;;;;;;;;;;2109603;27;20396;-67
2023/09/20 04:16:28;;;;;;;0.10;0.10;;;;;;;;;;2110049;27;20032;-68
2023/09/20 04:17:48;;;;;;;0.30;0.10;;;;;;;;;;2110530;27;20427;-68
2023/09/20 04:19:07;;;;;;;0.20;0.10;;;;;;;;;;2109397;27;20051;-71
2023/09/20 04:20:26;;;;;;;0.05;0.00;;;;;;;;;;2110377;27;20024;-67
2023/09/20 04:21:45;;;;;;;0.08;0.08;;;;;;;;;;2102082;28;20040;-66
2023/09/20 04:23:04;;;;;;;0.10;0.10;;;;;;;;;;2108704;28;20028;-63
2023/09/20 04:24:23;;;;;;;0.80;0.03;;;;;;;;;;2111287;27;20039;-67
2023/09/20 04:25:42;;;;;;;1.85;0.10;;;;;;;;;;2109898;28;20024;-67
2023/09/20 04:27:03;;;;;;;0.10;0.10;;;;;;;;;;2109385;27;20036;-66
2023/09/20 04:28:23;;;;;;;0.10;0.10;;;;;;;;;;2109837;28;20512;-67
2023/09/20 04:29:42;;;;;;;0.32;0.10;;;;;;;;;;2110186;27;20063;-67
2023/09/20 04:31:03;;;;;;;0.43;0.10;;;;;;;;;;2109818;28;20028;-72
2023/09/20 04:32:23;;;;;;;0.38;0.13;;;;;;;;;;2108371;28;20062;-69
2023/09/20 04:33:41;;;;;;;0.15;0.13;;;;;;;;;;2105892;27;20028;-69
2023/09/20 04:35:02;;;;;;;0.10;0.10;;;;;;;;;;2108481;28;20044;-70
2023/09/20 04:36:21;;;;;;;0.10;0.10;;;;;;;;;;2110148;28;20477;-68
2023/09/20 04:37:40;;;;;;;0.10;0.10;;;;;;;;;;2099467;28;20103;-68
2023/09/20 04:38:59;;;;;;;0.10;0.10;;;;;;;;;;2106311;28;20441;-68
2023/09/20 04:40:18;;;;;;;0.28;0.10;;;;;;;;;;2109324;28;20065;-65
2023/09/20 04:41:38;;;;;;;0.40;0.20;;;;;;;;;;2110384;28;20031;-68
2023/09/20 04:42:57;;;;;;;0.30;0.17;;;;;;;;;;2112512;27;20024;-69
2023/09/20 04:44:16;;;;;;;0.10;0.10;;;;;;;;;;2111025;28;20031;-69
2023/09/20 04:45:35;;;;;;;1.50;0.10;;;;;;;;;;2107862;28;20031;-69
2023/09/20 04:46:57;;;;;;;0.10;0.10;;;;;;;;;;2110020;27;20023;-67
2023/09/20 04:48:16;;;;;;;1.38;0.10;;;;;;;;;;2109179;28;20023;-69
2023/09/20 04:49:37;;;;;;;0.10;0.10;;;;;;;;;;2109933;28;20031;-67
2023/09/20 04:50:56;;;;;;;0.10;0.10;;;;;;;;;;2109659;28;20035;-69
2023/09/20 04:52:15;;;;;;;0.10;0.10;;;;;;;;;;2100642;28;20036;-67
2023/09/20 04:53:34;;;;;;;0.20;0.15;;;;;;;;;;2105793;27;20102;-68
2023/09/20 04:54:54;;;;;;;0.15;0.10;;;;;;;;;;2110097;28;20065;-71
2023/09/20 04:56:13;;;;;;;0.20;0.10;;;;;;;;;;2109557;28;20142;-70
2023/09/20 04:57:32;;;;;;;0.10;0.10;;;;;;;;;;2100380;28;20036;-70
2023/09/20 04:58:52;;;;;;;0.13;0.13;;;;;;;;;;2107653;27;21113;-69
2023/09/20 05:00:14;;;;;;;0.63;0.10;;;;;;;;;;2108082;28;20028;-68
2023/09/20 05:01:33;;;;;;;0.20;0.20;;;;;;;;;;2109019;27;20484;-68
2023/09/20 05:02:52;;;;;;;0.30;0.20;;;;;;;;;;2109850;27;20036;-68
2023/09/20 05:04:13;;;;;;;0.10;0.10;;;;;;;;;;2108854;28;20040;-69
2023/09/20 05:05:32;;;;;;;1.35;0.13;;;;;;;;;;2108561;27;20531;-68
2023/09/20 05:06:53;;;;;;;0.10;0.10;;;;;;;;;;2109481;27;20062;-69
2023/09/20 05:08:15;;;;;;;0.28;0.28;;;;;;;;;;2102309;28;20032;-68
2023/09/20 05:09:35;;;;;;;2.95;0.20;;;;;;;;;;2106963;28;20035;-69
2023/09/20 05:10:55;;;;;;;0.10;0.10;;;;;;;;;;2109481;28;20110;-70
2023/09/20 05:12:14;;;;;;;1.05;0.25;;;;;;;;;;2109823;27;20023;-70
2023/09/20 05:13:34;;;;;;;0.20;0.10;;;;;;;;;;2108631;28;20032;-64
2023/09/20 05:14:54;;;;;;;2.50;0.20;;;;;;;;;;2108737;28;20035;-66
2023/09/20 05:16:13;;;;;;;2.10;0.20;;;;;;;;;;2110813;27;20124;-69
2023/09/20 05:17:34;;;;;;;0.08;0.03;;;;;;;;;;2109092;27;20094;-69
2023/09/20 05:18:52;;;;;;;0.10;0.10;;;;;;;;;;2107697;28;20020;-68
2023/09/20 05:20:14;;;;;;;1.77;0.25;;;;;;;;;;2110573;28;20028;-69
2023/09/20 05:21:34;;;;;;;0.57;0.17;;;;;;;;;;2109634;28;20548;-67
2023/09/20 05:22:53;;;;;;;0.10;0.10;;;;;;;;;;2108957;28;20051;-67
2023/09/20 05:24:11;;;;;;;0.32;0.22;;;;;;;;;;2107810;28;20035;-68
2023/09/20 05:25:31;;;;;;;0.52;0.20;;;;;;;;;;2107933;28;20032;-69
2023/09/20 05:26:50;;;;;;;0.20;0.20;;;;;;;;;;2109024;28;20054;-68
2023/09/20 05:28:10;;;;;;;0.22;0.20;;;;;;;;;;2108107;28;20035;-69
2023/09/20 05:29:29;;;;;;;0.15;0.10;;;;;;;;;;2109121;27;20027;-68
2023/09/20 05:30:49;;;;;;;0.20;0.20;;;;;;;;;;2108411;28;20235;-71
2023/09/20 05:32:08;;;;;;;3.10;0.30;;;;;;;;;;2109408;28;20040;-69
2023/09/20 05:33:30;;;;;;;0.35;0.20;;;;;;;;;;2107644;28;20469;-69
2023/09/20 05:34:50;;;;;;;0.00;0.00;;;;;;;;;;2108453;28;20032;-70
2023/09/20 05:36:09;;;;;;;0.25;0.10;;;;;;;;;;2107683;28;20024;-66
2023/09/20 05:37:30;;;;;;;0.32;0.20;;;;;;;;;;2109415;28;20023;-69
2023/09/20 05:38:49;;;;;;;0.57;0.40;;;;;;;;;;2108780;28;20028;-65
2023/09/20 05:40:18;;;;;;;0.10;0.10;;;;;;;;;;2108237;28;20032;-69
2023/09/20 05:41:39;;;;;;;0.95;0.15;;;;;;;;;;2109076;28;20024;-69
2023/09/20 05:42:58;;;;;;;0.35;0.35;;;;;;;;;;2108946;28;20024;-69
2023/09/20 05:44:19;;;;;;;0.52;0.20;;;;;;;;;;2108179;28;20023;-69
2023/09/20 05:45:37;;;;;;;0.20;0.20;;;;;;;;;;2109644;28;20487;-67
2023/09/20 05:46:56;;;;;;;0.38;0.10;;;;;;;;;;2109485;28;20024;-68
2023/09/20 05:48:16;;;;;;;1.40;0.20;;;;;;;;;;2108685;28;20035;-69
2023/09/20 05:49:35;;;;;;;1.17;0.20;;;;;;;;;;2103960;28;20048;-69
2023/09/20 05:50:54;;;;;;;0.28;0.22;;;;;;;;;;2107013;28;20079;-65
2023/09/20 05:52:13;;;;;;;2.03;0.10;;;;;;;;;;2107661;28;20035;-64
2023/09/20 05:53:33;;;;;;;0.40;0.15;;;;;;;;;;2108915;28;20028;-71
2023/09/20 05:54:53;;;;;;;0.15;0.15;;;;;;;;;;2109459;28;20063;-68
2023/09/20 05:56:12;;;;;;;0.20;0.20;;;;;;;;;;2109442;28;20040;-66
2023/09/20 05:57:31;;;;;;;0.38;0.10;;;;;;;;;;2109275;28;20028;-70
2023/09/20 05:58:53;;;;;;;1.08;0.22;;;;;;;;;;2109332;28;20032;-69
2023/09/20 06:00:22;;;;;;;0.15;0.10;;;;;;;;;;2106481;28;20024;-69
2023/09/20 06:01:41;;;;;;;0.57;0.20;;;;;;;;;;2107576;28;20063;-69
2023/09/20 06:03:00;;;;;;;0.20;0.20;;;;;;;;;;2107371;28;20484;-68
2023/09/20 06:04:19;;;;;;;0.77;0.20;;;;;;;;;;2109339;28;20032;-69
2023/09/20 06:05:38;;;;;;;0.17;0.10;;;;;;;;;;2108798;28;20064;-69
2023/09/20 06:06:58;;;;;;;0.15;0.10;;;;;;;;;;2109898;28;20040;-70
2023/09/20 06:08:17;;;;;;;0.10;0.10;;;;;;;;;;2109216;28;20044;-69
2023/09/20 06:09:36;;;;;;;0.40;0.20;;;;;;;;;;2110472;28;20039;-68
2023/09/20 06:10:55;;;;;;;0.10;0.10;;;;;;;;;;2110446;28;20440;-70
2023/09/20 06:12:14;;;;;;;0.55;0.20;;;;;;;;;;2110567;28;20608;-69
2023/09/20 06:13:33;;;;;;;0.13;0.10;;;;;;;;;;2101032;28;20043;-70
2023/09/20 06:14:53;;;;;;;0.17;0.17;;;;;;;;;;2106494;28;20504;-70
2023/09/20 06:16:11;;;;;;;0.75;0.38;;;;;;;;;;2110760;28;20024;-70
2023/09/20 06:17:32;;;;;;;0.40;0.20;;;;;;;;;;2101669;28;20024;-70
2023/09/20 06:18:51;;;;;;;0.10;0.10;;;;;;;;;;2106887;28;20505;-70
2023/09/20 06:20:16;;;;;;;0.40;0.20;;;;;;;;;;2110559;28;20027;-68
2023/09/20 06:21:38;;;;;;;0.75;0.20;;;;;;;;;;2109815;28;20028;-69
2023/09/20 06:22:57;;;;;;;0.20;0.20;;;;;;;;;;2101494;28;20115;-70
2023/09/20 06:24:19;;;;;;;1.70;0.30;;;;;;;;;;2106231;28;20044;-69
2023/09/20 06:25:38;;;;;;;0.43;0.20;;;;;;;;;;2109789;28;20431;-69
2023/09/20 06:26:58;;;;;;;1.13;0.20;;;;;;;;;;2109599;28;20435;-69
2023/09/20 06:28:17;;;;;;;1.55;0.32;;;;;;;;;;2110568;28;20095;-70
2023/09/20 06:29:36;;;;;;;0.25;0.20;;;;;;;;;;2109683;28;20027;-69
2023/09/20 06:30:55;;;;;;;0.20;0.20;;;;;;;;;;2099626;28;20067;-70
2023/09/20 06:32:15;;;;;;;0.28;0.20;;;;;;;;;;2106326;28;20040;-68
2023/09/20 06:33:34;;;;;;;0.93;0.22;;;;;;;;;;2109672;28;20477;-69
2023/09/20 06:34:53;;;;;;;1.17;0.30;;;;;;;;;;2109791;28;20028;-69
2023/09/20 06:36:16;;;;;;;1.25;0.60;;;;;;;;;;2101765;28;20056;-72
2023/09/20 06:37:35;;;;;;;0.20;0.15;;;;;;;;;;2107623;28;20428;-69
2023/09/20 06:38:54;;;;;;;0.10;0.10;;;;;;;;;;2110087;28;21243;-69
2023/09/20 06:40:23;;;;;;;0.52;0.20;;;;;;;;;;2109949;28;20106;-69
2023/09/20 06:41:42;;;;;;;1.55;0.13;;;;;;;;;;2109357;28;20035;-70
2023/09/20 06:43:01;;;;;;;0.43;0.32;;;;;;;;;;2109780;28;20547;-68
2023/09/20 06:44:20;;;;;;;1.40;0.25;;;;;;;;;;2109460;28;20032;-69
2023/09/20 06:45:47;;;;;;;0.55;0.30;;;;;;;;;;2110218;28;20032;-70
2023/09/20 06:47:09;;;;;;;0.20;0.10;;;;;;;;;;2102619;28;20032;-68
2023/09/20 06:48:29;;;;;;;1.08;0.20;;;;;;;;;;2106032;28;20032;-71
2023/09/20 06:49:48;;;;;;;0.43;0.10;;;;;;;;;;2108166;28;20032;-69
2023/09/20 06:51:09;;;;;;;0.30;0.30;;;;;;;;;;2109172;28;20044;-68
2023/09/20 06:52:28;;;;;;;1.90;0.30;;;;;;;;;;2109782;28;20039;-67
2023/09/20 06:53:48;;;;;;;0.73;0.30;;;;;;;;;;2101273;28;20110;-70
2023/09/20 06:55:16;;;;;;;0.52;0.20;;;;;;;;;;2105837;28;20158;-69
2023/09/20 06:56:35;;;;;;;0.93;0.20;;;;;;;;;;2108780;28;20020;-69
2023/09/20 06:57:54;;;;;;;0.75;0.28;;;;;;;;;;2109875;28;20020;-68
2023/09/20 06:59:13;;;;;;;0.40;0.30;;;;;;;;;;2110646;28;20028;-70
2023/09/20 07:00:35;;;;;;;2.30;0.22;;;;;;;;;;2110912;28;20365;-69
2023/09/20 07:01:55;;;;;;;0.98;0.25;;;;;;;;;;2110722;27;20028;-69
2023/09/20 07:03:14;;;;;;;1.23;0.30;;;;;;;;;;2111467;28;20035;-71
2023/09/20 07:04:33;;;;;;;0.20;0.20;;;;;;;;;;2112522;28;20040;-68
2023/09/20 07:05:52;;;;;;;0.40;0.38;;;;;;;;;;2111371;28;20113;-66
2023/09/20 07:07:12;;;;;;;1.52;0.20;;;;;;;;;;2111075;28;20062;-68
2023/09/20 07:08:31;;;;;;;0.30;0.30;;;;;;;;;;2111031;28;20023;-70
2023/09/20 07:09:50;;;;;;;0.20;0.20;;;;;;;;;;2110650;28;20024;-70
2023/09/20 07:11:10;;;;;;;1.13;0.20;;;;;;;;;;2111090;28;20039;-65
2023/09/20 07:12:29;;;;;;;0.28;0.28;;;;;;;;;;2111077;28;20090;-70
2023/09/20 07:13:48;;;;;;;0.20;0.20;;;;;;;;;;2110637;28;20028;-69
2023/09/20 07:15:09;;;;;;;1.45;0.30;;;;;;;;;;2110717;27;20115;-69
2023/09/20 07:16:28;;;;;;;0.60;0.22;;;;;;;;;;2111323;28;20059;-69
2023/09/20 07:17:50;;;;;;;0.50;0.20;;;;;;;;;;2111243;27;20023;-70
2023/09/20 07:19:11;;;;;;;0.35;0.20;;;;;;;;;;2111174;28;20411;-70
2023/09/20 07:20:31;;;;;;;0.65;0.20;;;;;;;;;;2111579;28;20019;-70
2023/09/20 07:21:50;;;;;;;0.50;0.20;;;;;;;;;;2111244;28;20484;-70
2023/09/20 07:23:12;;;;;;;1.85;0.30;;;;;;;;;;2111001;28;20023;-68
2023/09/20 07:24:32;;;;;;;13.77;1.58;;;;;;;;;;2110583;28;20559;-70
2023/09/20 07:25:51;;;;;;;0.30;0.30;;;;;;;;;;2110896;28;20031;-69
2023/09/20 07:27:11;;;;;;;7.45;0.60;;;;;;;;;;2111568;28;20031;-70
2023/09/20 07:28:31;;;;;;;2.55;0.40;;;;;;;;;;2110126;28;20040;-69
2023/09/20 07:29:51;;;;;;;0.38;0.28;;;;;;;;;;2112346;28;20361;-69
2023/09/20 07:31:10;;;;;;;39.53;2.25;;;;;;;;;;2111123;28;20035;-70
2023/09/20 07:32:29;;;;;;;37.58;2.92;;;;;;;;;;2110709;27;20028;-70
2023/09/20 07:33:49;;;;;;;1.92;0.40;;;;;;;;;;2110984;28;20419;-71
2023/09/20 07:35:19;;;;;;;2.00;0.30;;;;;;;;;;2111134;28;20392;-70
2023/09/20 07:36:40;;;;;;;0.50;0.20;;;;;;;;;;2109847;28;20020;-66
2023/09/20 07:37:59;;;;;;;0.57;0.20;;;;;;;;;;2102567;28;20044;-69
2023/09/20 07:39:21;;;;;;;0.20;0.20;;;;;;;;;;2107791;28;20036;-70
2023/09/20 07:40:40;;;;;;;0.50;0.50;;;;;;;;;;2110113;28;20667;-68
2023/09/20 07:41:59;;;;;;;0.20;0.10;;;;;;;;;;2109573;28;20099;-64
2023/09/20 07:43:19;;;;;;;0.82;0.30;;;;;;;;;;2110795;28;20015;-68
2023/09/20 07:44:38;;;;;;;0.70;0.40;;;;;;;;;;2111163;28;20035;-69
2023/09/20 07:46:00;;;;;;;0.70;0.30;;;;;;;;;;2111710;28;20032;-71
2023/09/20 07:47:20;;;;;;;0.38;0.20;;;;;;;;;;2110787;28;20035;-70
2023/09/20 07:48:47;;;;;;;0.57;0.30;;;;;;;;;;2109768;28;20024;-70
2023/09/20 07:50:07;;;;;;;1.40;0.20;;;;;;;;;;2111148;28;20040;-70
2023/09/20 07:51:29;;;;;;;8.77;0.75;;;;;;;;;;2111275;28;20028;-70
2023/09/20 07:52:50;;;;;;;2.17;0.50;;;;;;;;;;2110569;28;20059;-69
2023/09/20 07:54:09;;;;;;;11.45;0.80;;;;;;;;;;2110714;28;20631;-70
2023/09/20 07:55:30;;;;;;;10.50;0.80;;;;;;;;;;2108876;28;20480;-69
2023/09/20 07:56:52;;;;;;;0.40;0.20;;;;;;;;;;2110459;28;20110;-67
2023/09/20 07:58:11;;;;;;;1.55;0.38;;;;;;;;;;2110432;28;20020;-70
2023/09/20 07:59:30;;;;;;;1.63;0.40;;;;;;;;;;2109096;28;20115;-70